Time;durP1;ratioP1;P1;durP2;ratioP2;P2;SDS_P1;SDS_P2;PMS_P1;PMS_P2;Temp;Humidity;BMP_temperature;BMP_pressure;BME280_temperature;BME280_humidity;BME280_pressure;Samples;Min_cycle;Max_cycle;Signal;HPM_P1;HPM_P2
2021/04/11 00:02:00;;;;;;;9.90;6.83;;;5.70;99.90;;;;;;5098603;28;20228;-81
2021/04/11 00:04:45;;;;;;;10.17;6.80;;;5.60;99.90;;;;;;5098883;28;20239;-81
2021/04/11 00:07:30;;;;;;;9.10;6.90;;;5.60;99.90;;;;;;5098354;28;20243;-81
2021/04/11 00:10:18;;;;;;;10.10;7.33;;;5.60;99.90;;;;;;5097928;28;20213;-82
2021/04/11 00:13:07;;;;;;;10.60;7.50;;;5.60;99.90;;;;;;5097649;28;20237;-81
2021/04/11 00:15:53;;;;;;;9.33;6.53;;;5.60;99.90;;;;;;5098164;28;20772;-81
2021/04/11 00:18:38;;;;;;;10.03;6.57;;;5.60;99.90;;;;;;5097623;28;20225;-83
2021/04/11 00:21:23;;;;;;;8.53;6.00;;;5.50;99.90;;;;;;5089869;28;20208;-81
2021/04/11 00:24:08;;;;;;;11.80;7.63;;;5.50;99.90;;;;;;5086175;28;20267;-81
2021/04/11 00:26:54;;;;;;;9.00;6.40;;;5.50;99.90;;;;;;5086799;28;20668;-81
2021/04/11 00:29:39;;;;;;;9.03;6.40;;;5.50;99.90;;;;;;5084578;28;20281;-81
2021/04/11 00:32:23;;;;;;;9.10;6.30;;;5.50;99.90;;;;;;5078326;28;20240;-81
2021/04/11 00:35:13;;;;;;;11.67;7.73;;;5.50;99.90;;;;;;5079637;28;20692;-81
2021/04/11 00:37:58;;;;;;;9.13;6.50;;;5.40;99.90;;;;;;5089532;28;20239;-81
2021/04/11 00:40:43;;;;;;;10.37;7.07;;;5.40;99.90;;;;;;5093232;28;20225;-81
2021/04/11 00:43:29;;;;;;;10.17;7.33;;;5.40;99.90;;;;;;5094811;28;20252;-81
2021/04/11 00:46:28;;;;;;;8.70;6.47;;;5.40;99.90;;;;;;5089504;28;20244;-82
2021/04/11 00:49:17;;;;;;;10.00;7.53;;;5.40;99.90;;;;;;5092407;28;20212;-81
2021/04/11 00:52:05;;;;;;;9.73;7.37;;;5.40;99.90;;;;;;5081437;28;20627;-81
2021/04/11 00:54:49;;;;;;;9.93;7.10;;;5.30;99.90;;;;;;5079910;28;20241;-81
2021/04/11 00:57:35;;;;;;;8.87;6.30;;;5.30;99.90;;;;;;5086519;28;20213;-81
2021/04/11 01:00:28;;;;;;;9.27;6.30;;;5.30;99.90;;;;;;5093747;28;20298;-80
2021/04/11 01:03:17;;;;;;;10.90;6.83;;;5.30;99.90;;;;;;5086318;28;20201;-82
2021/04/11 01:06:02;;;;;;;9.23;6.70;;;5.30;99.90;;;;;;5078505;28;20264;-81
2021/04/11 01:08:51;;;;;;;9.47;6.80;;;5.20;99.90;;;;;;5085485;28;20213;-81
2021/04/11 01:11:36;;;;;;;10.07;6.73;;;5.20;99.90;;;;;;5087178;28;20313;-80
2021/04/11 01:14:21;;;;;;;9.93;7.33;;;5.20;99.90;;;;;;5074387;28;20240;-80
2021/04/11 01:17:08;;;;;;;10.37;7.47;;;5.20;99.90;;;;;;5083464;28;20202;-81
2021/04/11 01:19:53;;;;;;;10.40;7.40;;;5.20;99.90;;;;;;5087394;28;20344;-81
2021/04/11 01:22:54;;;;;;;9.77;6.83;;;5.10;99.90;;;;;;5093450;28;20284;-81
2021/04/11 01:25:41;;;;;;;11.87;7.57;;;5.10;99.90;;;;;;5086627;28;20195;-80
2021/04/11 01:28:32;;;;;;;12.27;8.13;;;5.10;99.90;;;;;;5082877;28;20689;-80
2021/04/11 01:31:17;;;;;;;10.60;7.40;;;5.10;99.90;;;;;;5086347;28;20205;-80
2021/04/11 01:34:06;;;;;;;10.63;7.27;;;5.00;99.90;;;;;;5085392;28;20356;-80
2021/04/11 01:36:54;;;;;;;11.80;7.63;;;5.10;99.90;;;;;;5096821;28;20244;-80
2021/04/11 01:39:42;;;;;;;11.23;8.30;;;5.00;99.90;;;;;;5086368;28;20205;-81
2021/04/11 01:42:28;;;;;;;10.97;7.50;;;5.00;99.90;;;;;;5092288;28;20206;-81
2021/04/11 01:45:14;;;;;;;13.43;8.93;;;5.00;99.90;;;;;;5091317;28;20209;-80
2021/04/11 01:48:00;;;;;;;11.90;7.40;;;5.00;99.90;;;;;;5084103;28;20738;-81
2021/04/11 01:50:46;;;;;;;11.40;8.17;;;4.90;99.90;;;;;;5092353;28;20217;-80
2021/04/11 01:53:30;;;;;;;12.17;7.90;;;4.90;99.90;;;;;;5094861;28;20750;-80
2021/04/11 01:56:18;;;;;;;10.97;7.27;;;4.90;99.90;;;;;;5088892;28;20217;-81
2021/04/11 01:59:08;;;;;;;10.23;7.23;;;4.90;99.90;;;;;;5095083;28;20245;-81
2021/04/11 02:01:55;;;;;;;11.43;7.60;;;4.90;99.90;;;;;;5085926;28;20202;-82
2021/04/11 02:04:39;;;;;;;10.87;7.83;;;4.90;99.90;;;;;;5099278;28;20225;-81
2021/04/11 02:07:25;;;;;;;11.20;7.70;;;4.90;99.90;;;;;;5098330;28;20251;-81
2021/04/11 02:10:11;;;;;;;10.83;7.73;;;4.90;99.90;;;;;;5092431;28;20201;-80
2021/04/11 02:12:56;;;;;;;12.27;7.80;;;4.80;99.90;;;;;;5085305;28;20221;-81
2021/04/11 02:15:45;;;;;;;14.87;8.00;;;4.80;99.90;;;;;;5092851;28;20222;-81
2021/04/11 02:18:32;;;;;;;10.23;6.67;;;4.80;99.90;;;;;;5087938;28;20236;-81
2021/04/11 02:21:20;;;;;;;11.13;7.37;;;4.80;99.90;;;;;;5079502;28;20202;-81
2021/04/11 02:24:08;;;;;;;11.20;7.10;;;4.80;99.90;;;;;;5084089;28;20727;-81
2021/04/11 02:26:54;;;;;;;9.60;6.07;;;4.80;99.90;;;;;;5083699;28;20298;-82
2021/04/11 02:29:39;;;;;;;12.03;7.40;;;4.70;99.90;;;;;;5099817;28;20212;-82
2021/04/11 02:32:25;;;;;;;9.57;6.43;;;4.70;99.90;;;;;;5089164;28;20633;-82
2021/04/11 02:35:14;;;;;;;9.87;6.93;;;4.70;99.90;;;;;;5088861;28;20773;-82
2021/04/11 02:38:02;;;;;;;11.30;7.07;;;4.70;99.90;;;;;;5090909;28;20263;-81
2021/04/11 02:40:49;;;;;;;9.10;6.17;;;4.70;99.90;;;;;;5086086;28;20790;-82
2021/04/11 02:43:34;;;;;;;9.40;6.30;;;4.70;99.90;;;;;;5093821;28;20275;-81
2021/04/11 02:46:19;;;;;;;10.30;6.70;;;4.60;99.90;;;;;;5099026;28;20197;-82
2021/04/11 02:49:06;;;;;;;10.30;7.70;;;4.70;99.90;;;;;;5083498;28;20210;-81
2021/04/11 02:51:53;;;;;;;11.87;7.40;;;4.70;99.90;;;;;;5093913;28;20333;-81
2021/04/11 02:54:39;;;;;;;11.33;7.23;;;4.70;99.90;;;;;;5098097;28;20220;-81
2021/04/11 02:57:25;;;;;;;12.40;7.30;;;4.70;99.90;;;;;;5101755;28;20206;-82
2021/04/11 03:00:20;;;;;;;10.00;6.73;;;4.70;99.90;;;;;;5097924;28;20229;-81
2021/04/11 03:03:05;;;;;;;9.80;6.47;;;4.60;99.90;;;;;;5090458;28;20697;-82
2021/04/11 03:05:53;;;;;;;9.87;7.00;;;4.60;99.90;;;;;;5086187;28;20799;-81
2021/04/11 03:08:42;;;;;;;10.57;7.53;;;4.60;99.90;;;;;;5087102;28;20198;-82
2021/04/11 03:11:30;;;;;;;9.57;6.90;;;4.60;99.90;;;;;;5086205;28;20249;-82
2021/04/11 03:14:16;;;;;;;11.87;6.20;;;4.70;99.90;;;;;;5096637;28;20244;-80
2021/04/11 03:17:03;;;;;;;10.70;7.17;;;4.60;99.90;;;;;;5089620;28;20213;-81
2021/04/11 03:19:54;;;;;;;10.43;7.00;;;4.60;99.90;;;;;;5091783;28;20225;-81
2021/04/11 03:22:40;;;;;;;9.03;5.93;;;4.60;99.90;;;;;;5087283;28;20294;-81
2021/04/11 03:25:26;;;;;;;9.00;6.30;;;4.60;99.90;;;;;;5084965;28;20268;-81
2021/04/11 03:28:17;;;;;;;9.47;6.23;;;4.60;99.90;;;;;;5084680;28;20289;-81
2021/04/11 03:31:06;;;;;;;8.27;5.63;;;4.60;99.90;;;;;;5082226;28;20553;-80
2021/04/11 03:33:55;;;;;;;7.73;4.90;;;4.70;99.90;;;;;;5079379;28;20417;-80
2021/04/11 03:36:41;;;;;;;9.50;5.30;;;4.70;99.90;;;;;;5093458;28;20266;-81
2021/04/11 03:39:28;;;;;;;7.83;4.57;;;4.70;99.90;;;;;;5084219;28;20256;-81
2021/04/11 03:42:17;;;;;;;6.20;4.30;;;4.70;99.90;;;;;;5091416;28;20268;-81
2021/04/11 03:45:04;;;;;;;5.73;4.20;;;4.70;99.90;;;;;;5084482;28;20219;-81
2021/04/11 03:47:54;;;;;;;6.17;3.77;;;4.70;99.90;;;;;;5092334;28;20202;-80
2021/04/11 03:50:43;;;;;;;4.60;3.50;;;4.70;99.90;;;;;;5099003;28;20695;-81
2021/04/11 03:53:36;;;;;;;4.00;3.43;;;4.70;99.90;;;;;;5078952;28;20210;-81
2021/04/11 03:56:25;;;;;;;4.27;3.37;;;4.70;99.90;;;;;;5091615;28;20267;-81
2021/04/11 03:59:15;;;;;;;4.67;3.47;;;4.70;99.90;;;;;;5084717;28;20201;-81
2021/04/11 04:02:04;;;;;;;4.43;3.20;;;4.70;99.90;;;;;;5082117;28;20568;-80
2021/04/11 04:04:50;;;;;;;3.80;3.20;;;4.70;99.90;;;;;;5077387;28;20222;-81
2021/04/11 04:07:46;;;;;;;4.77;3.30;;;4.70;99.90;;;;;;5090446;28;20210;-80
2021/04/11 04:10:34;;;;;;;4.63;3.73;;;4.70;99.90;;;;;;5094867;28;20202;-80
2021/04/11 04:13:37;;;;;;;3.47;3.10;;;4.70;99.90;;;;;;5090875;28;20206;-80
2021/04/11 04:16:34;;;;;;;4.67;3.53;;;4.70;99.90;;;;;;5090488;28;20225;-80
2021/04/11 04:19:28;;;;;;;4.50;3.33;;;4.70;99.90;;;;;;5081216;28;20736;-80
2021/04/11 04:22:35;;;;;;;3.37;3.07;;;4.70;99.90;;;;;;5081049;28;20203;-81
2021/04/11 04:25:49;;;;;;;4.50;3.00;;;4.70;99.90;;;;;;5087340;28;20260;-80
2021/04/11 04:28:51;;;;;;;4.53;3.50;;;4.70;99.90;;;;;;5081220;28;20205;-80
2021/04/11 04:31:48;;;;;;;5.13;3.40;;;4.50;99.90;;;;;;5090857;28;20247;-80
2021/04/11 04:34:39;;;;;;;4.50;3.20;;;4.70;99.90;;;;;;5096660;28;20237;-81
2021/04/11 04:37:35;;;;;;;5.27;3.17;;;4.60;99.90;;;;;;5095136;28;20256;-81
2021/04/11 04:40:33;;;;;;;5.27;3.60;;;4.60;99.90;;;;;;5093933;28;20206;-80
2021/04/11 04:43:26;;;;;;;3.97;3.10;;;4.70;99.90;;;;;;5089420;28;20205;-80
2021/04/11 04:46:19;;;;;;;7.27;3.37;;;4.70;99.90;;;;;;5097533;28;20693;-80
2021/04/11 04:49:12;;;;;;;6.13;3.60;;;4.70;99.90;;;;;;5092579;28;20735;-81
2021/04/11 04:52:03;;;;;;;3.63;3.33;;;4.70;99.90;;;;;;5093307;28;20308;-81
2021/04/11 04:54:54;;;;;;;3.73;2.97;;;4.70;99.90;;;;;;5093569;28;20220;-81
2021/04/11 04:57:47;;;;;;;4.57;3.40;;;4.70;99.90;;;;;;5093593;28;20240;-80
2021/04/11 05:00:35;;;;;;;4.50;3.13;;;4.70;99.90;;;;;;5091993;28;20543;-81
2021/04/11 05:03:25;;;;;;;4.10;3.20;;;4.70;99.90;;;;;;5094187;28;20243;-80
2021/04/11 05:06:14;;;;;;;4.17;3.53;;;4.70;99.90;;;;;;5097463;28;20727;-80
2021/04/11 05:09:05;;;;;;;5.23;3.57;;;4.70;99.90;;;;;;5094849;28;20218;-81
2021/04/11 05:11:57;;;;;;;4.57;3.73;;;4.70;99.90;;;;;;5092753;28;20213;-81
2021/04/11 05:14:48;;;;;;;5.80;3.70;;;4.70;99.90;;;;;;5094758;28;20222;-81
2021/04/11 05:17:36;;;;;;;3.87;3.20;;;4.80;99.90;;;;;;5091901;28;20294;-80
2021/04/11 05:20:25;;;;;;;4.63;3.30;;;4.80;99.90;;;;;;5088392;28;20201;-80
2021/04/11 05:23:16;;;;;;;4.53;3.60;;;4.80;99.90;;;;;;5093805;28;20324;-80
2021/04/11 05:26:09;;;;;;;5.10;3.67;;;4.80;99.90;;;;;;5089658;28;20324;-80
2021/04/11 05:29:02;;;;;;;7.23;3.93;;;4.80;99.90;;;;;;5093229;28;20620;-80
2021/04/11 05:31:50;;;;;;;4.93;3.97;;;4.80;99.90;;;;;;5089362;28;20313;-80
2021/04/11 05:34:35;;;;;;;6.40;4.00;;;4.80;99.90;;;;;;5096618;28;20785;-80
2021/04/11 05:37:33;;;;;;;6.10;4.20;;;4.80;99.90;;;;;;5083528;28;20203;-80
2021/04/11 05:40:22;;;;;;;4.73;3.60;;;4.80;99.90;;;;;;5093362;28;20257;-80
2021/04/11 05:43:12;;;;;;;5.83;4.00;;;4.80;99.90;;;;;;5091258;28;20198;-81
2021/04/11 05:46:04;;;;;;;6.63;4.30;;;4.90;99.90;;;;;;5087886;28;20197;-80
2021/04/11 05:48:54;;;;;;;6.17;4.13;;;4.90;99.90;;;;;;5095741;28;20583;-80
2021/04/11 05:51:44;;;;;;;5.53;4.30;;;4.90;99.90;;;;;;5082552;28;20319;-80
2021/04/11 05:54:34;;;;;;;7.53;3.83;;;4.90;99.90;;;;;;5095091;28;20653;-79
2021/04/11 05:57:24;;;;;;;6.33;4.73;;;4.90;99.90;;;;;;5089560;28;20200;-80
2021/04/11 06:00:14;;;;;;;7.83;4.60;;;4.90;99.90;;;;;;5081390;28;20198;-80
2021/04/11 06:03:01;;;;;;;5.60;4.27;;;5.00;99.90;;;;;;5089979;28;20296;-80
2021/04/11 06:05:53;;;;;;;6.90;4.43;;;5.00;99.90;;;;;;5088611;28;20324;-80
2021/04/11 06:08:45;;;;;;;6.60;3.97;;;5.00;99.90;;;;;;5087766;28;20206;-81
2021/04/11 06:11:38;;;;;;;4.60;3.40;;;5.00;99.90;;;;;;5086744;28;20209;-81
2021/04/11 06:14:29;;;;;;;5.33;4.13;;;5.00;99.90;;;;;;5080927;28;20307;-81
2021/04/11 06:17:16;;;;;;;5.40;3.80;;;5.00;99.90;;;;;;5089799;28;20217;-82
2021/04/11 06:20:04;;;;;;;5.97;3.97;;;5.10;99.90;;;;;;5112267;28;20229;-82
2021/04/11 06:22:57;;;;;;;6.43;3.83;;;5.10;99.90;;;;;;5118724;28;20463;-81
2021/04/11 06:25:47;;;;;;;4.93;3.70;;;5.10;99.90;;;;;;5106173;28;20187;-82
2021/04/11 06:28:44;;;;;;;4.20;3.47;;;5.10;99.90;;;;;;5103994;28;20546;-80
2021/04/11 06:31:34;;;;;;;4.67;3.30;;;5.10;99.90;;;;;;5094531;28;20202;-80
2021/04/11 06:34:22;;;;;;;7.27;3.60;;;5.20;99.90;;;;;;5088314;28;20220;-80
2021/04/11 06:37:10;;;;;;;6.97;3.53;;;5.20;99.90;;;;;;5084029;28;20202;-80
2021/04/11 06:39:56;;;;;;;4.70;3.07;;;5.20;99.90;;;;;;5086529;28;20641;-81
2021/04/11 06:43:04;;;;;;;3.80;3.10;;;5.20;99.90;;;;;;5087108;28;21215;-80
2021/04/11 06:45:56;;;;;;;4.00;3.20;;;5.20;99.90;;;;;;5084788;28;20318;-80
2021/04/11 06:49:05;;;;;;;4.83;3.10;;;5.30;99.90;;;;;;5079807;28;20205;-81
2021/04/11 06:52:35;;;;;;;5.70;3.47;;;5.30;99.90;;;;;;5089322;28;20213;-79
2021/04/11 06:55:41;;;;;;;4.93;3.37;;;5.30;99.90;;;;;;5002962;28;20231;-81
2021/04/11 06:58:36;;;;;;;4.33;2.80;;;5.30;99.90;;;;;;5004567;28;20219;-81
2021/04/11 07:02:09;;;;;;;6.57;2.90;;;5.40;99.90;;;;;;5081219;28;20220;-80
2021/04/11 07:05:09;;;;;;;4.87;2.93;;;5.40;99.90;;;;;;5081398;28;20360;-81
2021/04/11 07:08:30;;;;;;;5.07;3.07;;;5.50;99.90;;;;;;5087959;28;20225;-80
2021/04/11 07:11:55;;;;;;;3.90;2.80;;;5.50;99.90;;;;;;5089024;28;20206;-82
2021/04/11 07:15:09;;;;;;;3.13;2.50;;;5.60;99.90;;;;;;5086372;28;20364;-82
2021/04/11 07:18:34;;;;;;;2.77;2.30;;;5.70;99.90;;;;;;5080451;28;20224;-82
2021/04/11 07:21:54;;;;;;;3.13;2.50;;;5.80;99.90;;;;;;5076873;28;20255;-82
2021/04/11 07:24:53;;;;;;;4.27;2.40;;;5.90;99.90;;;;;;5085826;28;20252;-81
2021/04/11 07:27:58;;;;;;;3.40;2.50;;;6.00;99.90;;;;;;5090310;28;20202;-80
2021/04/11 07:30:48;;;;;;;4.03;2.10;;;6.10;99.90;;;;;;5083302;28;20205;-81
2021/04/11 07:33:59;;;;;;;7.00;3.50;;;6.20;99.90;;;;;;5088982;28;20245;-81
2021/04/11 07:37:15;;;;;;;4.67;2.40;;;6.30;99.90;;;;;;5081931;28;20338;-81
2021/04/11 07:40:14;;;;;;;3.47;2.43;;;6.40;99.90;;;;;;5079097;28;20204;-82
2021/04/11 07:43:21;;;;;;;2.10;1.53;;;6.50;99.90;;;;;;5083714;28;20247;-82
2021/04/11 07:46:35;;;;;;;2.40;1.73;;;6.60;99.90;;;;;;5078872;28;20235;-81
2021/04/11 07:50:02;;;;;;;3.00;1.70;;;6.60;99.90;;;;;;5086631;28;20784;-81
2021/04/11 07:53:06;;;;;;;5.00;2.40;;;6.70;99.90;;;;;;4992291;28;20213;-80
2021/04/11 07:56:06;;;;;;;2.83;1.97;;;6.70;99.90;;;;;;5094386;28;20285;-81
2021/04/11 07:59:25;;;;;;;2.87;1.93;;;6.70;99.90;;;;;;5087716;28;20206;-81
2021/04/11 08:02:40;;;;;;;3.37;2.10;;;6.70;99.90;;;;;;5089729;28;20206;-80
2021/04/11 08:05:53;;;;;;;5.33;2.17;;;6.70;99.90;;;;;;5090752;28;20226;-81
2021/04/11 08:08:54;;;;;;;5.20;2.20;;;6.70;99.90;;;;;;5083880;28;20282;-82
2021/04/11 08:12:19;;;;;;;6.57;2.40;;;6.60;99.90;;;;;;5093283;28;20208;-82
2021/04/11 08:15:17;;;;;;;5.27;2.33;;;6.70;99.90;;;;;;5081592;28;20720;-81
2021/04/11 08:18:37;;;;;;;2.43;2.20;;;6.70;99.90;;;;;;5082208;28;20252;-81
2021/04/11 08:21:32;;;;;;;5.77;2.40;;;6.70;99.90;;;;;;5072115;28;20274;-81
2021/04/11 08:24:46;;;;;;;5.07;2.50;;;6.70;99.90;;;;;;5090660;28;20270;-81
2021/04/11 08:28:22;;;;;;;5.83;2.20;;;6.70;99.90;;;;;;5075799;28;20210;-82
2021/04/11 08:31:29;;;;;;;3.47;2.00;;;6.70;99.90;;;;;;5093827;28;20205;-81
2021/04/11 08:34:46;;;;;;;3.27;2.50;;;6.70;99.90;;;;;;5076526;28;20290;-80
2021/04/11 08:37:58;;;;;;;5.03;1.90;;;6.70;99.90;;;;;;5080486;28;20304;-81
2021/04/11 08:41:04;;;;;;;5.13;2.27;;;6.70;99.90;;;;;;5090065;28;20209;-81
2021/04/11 08:44:06;;;;;;;2.70;1.80;;;6.80;99.90;;;;;;5091254;28;20642;-79
2021/04/11 08:47:06;;;;;;;3.80;2.37;;;6.80;99.90;;;;;;5090655;28;20307;-79
2021/04/11 08:49:56;;;;;;;4.43;1.90;;;6.80;99.90;;;;;;5087822;28;20981;-81
2021/04/11 08:52:45;;;;;;;3.93;2.10;;;6.80;99.90;;;;;;5083903;28;20206;-80
2021/04/11 08:55:39;;;;;;;4.63;1.80;;;6.90;99.90;;;;;;5076542;28;20798;-79
2021/04/11 08:58:33;;;;;;;5.33;2.00;;;6.90;99.90;;;;;;5080246;28;20225;-79
2021/04/11 09:01:28;;;;;;;4.37;1.93;;;7.00;99.90;;;;;;5080170;28;20240;-79
2021/04/11 09:04:20;;;;;;;2.37;1.80;;;7.00;99.90;;;;;;5080781;28;20220;-80
2021/04/11 09:07:33;;;;;;;3.03;1.77;;;7.10;99.90;;;;;;5075633;28;20205;-79
2021/04/11 09:10:32;;;;;;;5.40;2.10;;;7.20;99.90;;;;;;5089709;28;20196;-81
2021/04/11 09:13:27;;;;;;;3.30;2.00;;;7.30;99.90;;;;;;5080645;28;20737;-80
2021/04/11 09:16:22;;;;;;;4.20;1.80;;;7.40;99.90;;;;;;5083322;28;20214;-81
2021/04/11 09:19:19;;;;;;;3.70;1.80;;;7.50;99.90;;;;;;5082150;28;20304;-82
2021/04/11 09:22:19;;;;;;;3.53;1.60;;;7.60;99.90;;;;;;5085900;28;20248;-79
2021/04/11 09:25:11;;;;;;;1.80;1.27;;;7.70;99.90;;;;;;5085653;28;20223;-80
2021/04/11 09:28:15;;;;;;;4.77;1.53;;;7.90;99.90;;;;;;5082374;28;20222;-80
2021/04/11 09:31:13;;;;;;;12.47;2.87;;;8.10;99.90;;;;;;5087525;28;20217;-83
2021/04/11 09:34:32;;;;;;;3.47;2.20;;;8.20;99.90;;;;;;5079326;28;20266;-82
2021/04/11 09:37:35;;;;;;;1.40;1.30;;;8.40;99.90;;;;;;5084768;28;20206;-80
2021/04/11 09:40:37;;;;;;;2.90;1.30;;;8.60;99.90;;;;;;5085514;28;20213;-81
2021/04/11 09:44:01;;;;;;;3.60;1.27;;;8.70;99.90;;;;;;5089237;28;20197;-81
2021/04/11 09:47:17;;;;;;;2.87;1.17;;;8.90;99.90;;;;;;4985693;28;20221;-81
2021/04/11 09:50:14;;;;;;;2.43;1.27;;;9.00;99.90;;;;;;4989518;28;20243;-81
2021/04/11 09:53:41;;;;;;;2.03;1.00;;;9.00;99.90;;;;;;5091490;28;20229;-82
2021/04/11 09:56:40;;;;;;;2.53;1.07;;;9.00;99.90;;;;;;5091170;28;20226;-81
2021/04/11 09:59:56;;;;;;;2.47;1.27;;;9.00;99.90;;;;;;5089043;28;20744;-81
2021/04/11 10:03:04;;;;;;;2.43;1.40;;;8.90;99.90;;;;;;5086126;28;20206;-82
2021/04/11 10:06:02;;;;;;;4.90;1.30;;;8.90;99.90;;;;;;5089693;28;20205;-81
2021/04/11 10:09:14;;;;;;;2.40;1.60;;;8.80;99.90;;;;;;5082888;28;20214;-80
2021/04/11 10:12:18;;;;;;;3.83;1.23;;;8.80;99.90;;;;;;5085869;28;20578;-82
2021/04/11 10:15:10;;;;;;;3.13;1.67;;;8.90;99.90;;;;;;5087325;28;20744;-81
2021/04/11 10:18:35;;;;;;;2.17;1.07;;;9.00;99.90;;;;;;5082949;28;20203;-80
2021/04/11 10:21:27;;;;;;;2.07;1.40;;;9.20;99.90;;;;;;5086290;28;20291;-81
2021/04/11 10:24:32;;;;;;;2.17;1.10;;;9.30;99.90;;;;;;5088642;28;20245;-81
2021/04/11 10:27:24;;;;;;;1.13;0.90;;;9.40;99.90;;;;;;5094025;28;20220;-81
2021/04/11 10:30:13;;;;;;;1.60;0.97;;;9.50;99.90;;;;;;5091987;28;20318;-81
2021/04/11 10:33:06;;;;;;;2.40;0.90;;;9.50;99.90;;;;;;5094683;28;20209;-81
2021/04/11 10:35:57;;;;;;;2.63;0.97;;;9.50;99.90;;;;;;5090090;28;20209;-80
2021/04/11 10:38:48;;;;;;;4.10;1.40;;;9.60;99.90;;;;;;5098429;28;20566;-81
2021/04/11 10:41:52;;;;;;;2.17;1.03;;;9.70;99.90;;;;;;5084730;28;20696;-81
2021/04/11 10:44:54;;;;;;;2.23;1.30;;;9.80;99.90;;;;;;5096007;28;20245;-81
2021/04/11 10:48:09;;;;;;;2.13;0.97;;;9.90;99.90;;;;;;5084869;28;20209;-82
2021/04/11 10:51:09;;;;;;;3.20;1.00;;;10.10;99.90;;;;;;5091463;28;20230;-81
2021/04/11 10:54:14;;;;;;;4.97;1.33;;;10.40;99.90;;;;;;5084014;28;20879;-82
2021/04/11 10:57:20;;;;;;;2.63;1.00;;;10.60;99.90;;;;;;5088055;28;20545;-80
2021/04/11 11:00:21;;;;;;;3.17;1.23;;;10.80;99.90;;;;;;5093555;28;20251;-82
2021/04/11 11:03:48;;;;;;;2.87;0.80;;;10.90;99.90;;;;;;5095249;28;20250;-81
2021/04/11 11:06:52;;;;;;;1.17;0.80;;;10.90;99.90;;;;;;5054070;28;20205;-80
2021/04/11 11:09:43;;;;;;;3.93;1.40;;;10.90;99.90;;;;;;5096059;28;20254;-80
2021/04/11 11:12:42;;;;;;;5.30;1.47;;;10.90;99.90;;;;;;5097558;28;20239;-80
2021/04/11 11:15:58;;;;;;;2.93;1.30;;;10.80;99.90;;;;;;5089022;28;20221;-80
2021/04/11 11:19:09;;;;;;;7.20;1.57;;;10.80;99.90;;;;;;5069661;28;20193;-80
2021/04/11 11:22:17;;;;;;;2.40;1.30;;;10.90;99.90;;;;;;5086500;28;20193;-82
2021/04/11 11:25:36;;;;;;;2.10;1.17;;;11.00;99.90;;;;;;5097732;28;20220;-81
2021/04/11 11:28:47;;;;;;;3.63;1.70;;;11.20;99.90;;;;;;5092925;28;20197;-82
2021/04/11 11:31:57;;;;;;;5.00;1.40;;;11.40;99.90;;;;;;5067883;28;20213;-81
2021/04/11 11:34:52;;;;;;;1.70;1.10;;;11.50;99.90;;;;;;5101561;28;20653;-82
2021/04/11 11:38:00;;;;;;;4.17;1.17;;;11.70;99.90;;;;;;5089499;28;20571;-81
2021/04/11 11:41:00;;;;;;;3.37;0.90;;;11.80;99.90;;;;;;5095219;28;20263;-83
2021/04/11 11:43:53;;;;;;;3.20;1.17;;;11.90;99.90;;;;;;5099989;28;20261;-82
2021/04/11 11:46:45;;;;;;;1.57;0.80;;;11.90;99.90;;;;;;5095607;28;20201;-82
2021/04/11 11:49:40;;;;;;;2.10;0.80;;;12.00;99.90;;;;;;5093912;28;20228;-81
2021/04/11 11:52:29;;;;;;;2.83;0.80;;;12.10;99.90;;;;;;5101466;28;20866;-82
2021/04/11 11:55:22;;;;;;;3.97;1.07;;;12.10;99.90;;;;;;5098795;28;20625;-82
2021/04/11 11:58:14;;;;;;;3.27;1.20;;;12.10;99.90;;;;;;5091429;28;20288;-80
2021/04/11 12:01:02;;;;;;;2.30;0.93;;;12.00;99.90;;;;;;5099725;28;20204;-82
2021/04/11 12:03:47;;;;;;;2.07;1.20;;;12.00;99.90;;;;;;5100837;28;20283;-82
2021/04/11 12:06:36;;;;;;;7.40;1.27;;;11.90;99.90;;;;;;5099437;28;20205;-82
2021/04/11 12:09:24;;;;;;;1.17;1.00;;;11.80;99.90;;;;;;5097003;28;20197;-80
2021/04/11 12:12:14;;;;;;;1.83;1.10;;;11.70;99.90;;;;;;5100374;28;20205;-82
2021/04/11 12:15:06;;;;;;;3.57;1.27;;;11.60;99.90;;;;;;5099098;28;20257;-83
2021/04/11 12:17:59;;;;;;;2.93;1.10;;;11.50;99.90;;;;;;5085067;28;20233;-81
2021/04/11 12:20:51;;;;;;;3.30;1.63;;;11.30;99.90;;;;;;5100444;28;20247;-81
2021/04/11 12:23:41;;;;;;;3.43;1.30;;;11.30;99.90;;;;;;5090176;28;22013;-82
2021/04/11 12:26:27;;;;;;;3.70;1.20;;;11.30;99.90;;;;;;5099011;28;20220;-82
2021/04/11 12:29:14;;;;;;;5.73;1.10;;;11.30;99.90;;;;;;5096576;28;20248;-82
2021/04/11 12:32:12;;;;;;;2.93;1.37;;;11.30;99.90;;;;;;5099396;28;20197;-81
2021/04/11 12:35:09;;;;;;;4.83;1.20;;;11.40;99.90;;;;;;5099047;28;20229;-82
2021/04/11 12:38:06;;;;;;;3.90;1.70;;;11.50;99.90;;;;;;5099027;28;20680;-81
2021/04/11 12:41:04;;;;;;;6.63;1.27;;;11.80;99.90;;;;;;5082995;28;20262;-81
2021/04/11 12:44:02;;;;;;;3.47;1.23;;;12.10;99.90;;;;;;5097345;28;20217;-81
2021/04/11 12:47:00;;;;;;;2.70;1.20;;;12.40;99.90;;;;;;5098725;28;20196;-82
2021/04/11 12:49:52;;;;;;;2.90;1.47;;;12.60;99.90;;;;;;5089723;28;20772;-82
2021/04/11 12:52:40;;;;;;;6.60;1.77;;;12.60;99.90;;;;;;5095626;28;20225;-82
2021/04/11 12:55:30;;;;;;;2.03;1.50;;;12.70;99.90;;;;;;5087365;28;20233;-82
2021/04/11 12:58:23;;;;;;;3.40;1.03;;;12.60;99.90;;;;;;5096752;28;20192;-81
2021/04/11 13:01:16;;;;;;;1.20;1.10;;;12.50;99.90;;;;;;5105122;28;20208;-82
2021/04/11 13:04:05;;;;;;;2.17;1.00;;;12.50;99.90;;;;;;5104740;28;20343;-82
2021/04/11 13:06:55;;;;;;;5.10;1.40;;;12.40;99.90;;;;;;5101158;28;20202;-82
2021/04/11 13:10:14;;;;;;;4.07;1.17;;;12.30;99.90;;;;;;5098266;28;20238;-80
2021/04/11 13:13:06;;;;;;;2.33;1.00;;;12.20;99.90;;;;;;5094913;28;20189;-81
2021/04/11 13:15:56;;;;;;;2.10;1.10;;;12.10;99.90;;;;;;5102756;28;20240;-81
2021/04/11 13:18:46;;;;;;;3.30;1.23;;;12.00;99.90;;;;;;5090151;28;20225;-82
2021/04/11 13:21:37;;;;;;;3.23;1.20;;;11.90;99.90;;;;;;5100830;28;20192;-82
2021/04/11 13:24:30;;;;;;;4.03;1.60;;;11.90;99.90;;;;;;5104881;28;20229;-81
2021/04/11 13:27:23;;;;;;;1.20;1.07;;;11.90;99.90;;;;;;5084628;28;20266;-82
2021/04/11 13:30:14;;;;;;;1.10;1.00;;;11.90;99.90;;;;;;5104141;28;20212;-83
2021/04/11 13:33:02;;;;;;;4.07;1.10;;;12.00;99.90;;;;;;5090408;28;20227;-81
2021/04/11 13:35:56;;;;;;;4.00;1.30;;;12.10;99.90;;;;;;5097741;28;20268;-82
2021/04/11 13:38:43;;;;;;;2.90;1.10;;;12.10;99.90;;;;;;5103705;28;20739;-82
2021/04/11 13:41:46;;;;;;;3.83;1.27;;;12.20;99.90;;;;;;5092711;28;20255;-82
2021/04/11 13:44:41;;;;;;;2.40;1.27;;;12.40;99.90;;;;;;5096445;28;20803;-83
2021/04/11 13:47:31;;;;;;;2.07;1.10;;;12.60;99.90;;;;;;5096725;28;20205;-83
2021/04/11 13:50:19;;;;;;;2.57;1.30;;;12.80;99.90;;;;;;5089030;28;20209;-83
2021/04/11 13:53:20;;;;;;;2.73;1.00;;;13.00;99.90;;;;;;5081762;28;20218;-83
2021/04/11 13:56:17;;;;;;;3.63;1.27;;;13.10;99.90;;;;;;5099774;28;20217;-82
2021/04/11 13:59:10;;;;;;;1.57;1.07;;;13.10;99.90;;;;;;5097572;28;20212;-83
2021/04/11 14:01:58;;;;;;;1.53;0.83;;;13.20;99.90;;;;;;5099835;28;20234;-81
2021/04/11 15:22:26;;;;;;;3.07;1.10;;;13.20;99.90;;;;;;5076514;22;20228;-89
2021/04/11 15:25:45;;;;;;;1.63;0.87;;;13.60;99.50;;;;;;5085876;28;20255;-88
2021/04/11 15:28:40;;;;;;;1.40;0.80;;;13.90;97.10;;;;;;5101885;28;20702;-89
2021/04/11 15:31:50;;;;;;;2.30;0.90;;;14.20;94.80;;;;;;5085283;28;20277;-88
2021/04/11 15:35:06;;;;;;;1.43;1.03;;;14.30;94.60;;;;;;5062297;28;20308;-91
2021/04/11 15:41:40;;;;;;;0.70;0.70;;;14.90;91.40;;;;;;5068659;28;20221;-91
2021/04/11 15:44:54;;;;;;;;;;;;;;;;;;;;;
2021/04/11 15:48:19;;;;;;;1.30;1.00;;;15.60;90.30;;;;;;5060717;28;20201;-89
2021/04/11 15:54:11;;;;;;;1.87;0.80;;;16.40;88.90;;;;;;5085646;28;20372;-81
2021/04/11 15:57:01;;;;;;;3.30;1.10;;;16.70;86.30;;;;;;5058729;28;20276;-80
2021/04/11 16:00:01;;;;;;;0.97;0.87;;;17.00;82.20;;;;;;5083874;28;20205;-82
2021/04/11 16:03:01;;;;;;;2.07;0.90;;;17.20;81.80;;;;;;5086123;28;20210;-83
2021/04/11 16:05:51;;;;;;;1.20;0.90;;;17.30;79.30;;;;;;5095946;28;20212;-82
2021/04/11 16:08:50;;;;;;;2.20;1.00;;;17.30;79.20;;;;;;5091558;28;20612;-82
2021/04/11 16:11:49;;;;;;;2.30;1.00;;;17.30;79.30;;;;;;5093287;28;20556;-82
2021/04/11 16:14:40;;;;;;;2.10;0.97;;;17.20;78.70;;;;;;5083264;28;20233;-82
2021/04/11 16:17:44;;;;;;;2.20;1.13;;;17.00;77.50;;;;;;5088462;28;20222;-83
2021/04/11 16:20:40;;;;;;;3.33;1.40;;;16.60;76.60;;;;;;5083214;28;20264;-82
2021/04/11 16:23:40;;;;;;;2.27;1.33;;;16.50;73.90;;;;;;5091275;28;20755;-81
2021/04/11 16:26:32;;;;;;;1.87;0.97;;;16.20;75.90;;;;;;5093206;28;20199;-82
2021/04/11 16:29:22;;;;;;;2.73;1.07;;;15.90;74.40;;;;;;5076352;28;20228;-82
2021/04/11 16:32:17;;;;;;;2.80;1.40;;;15.60;76.20;;;;;;5074296;28;20322;-82
2021/04/11 16:35:09;;;;;;;1.87;1.23;;;15.40;76.30;;;;;;5082467;28;20346;-81
2021/04/11 16:38:19;;;;;;;1.50;1.00;;;15.00;76.00;;;;;;5090336;28;20256;-81
2021/04/11 16:41:15;;;;;;;1.60;1.07;;;14.60;77.10;;;;;;5090434;28;20214;-81
2021/04/11 16:44:17;;;;;;;5.97;1.30;;;14.20;78.00;;;;;;5075713;28;20243;-80
2021/04/11 16:47:08;;;;;;;3.07;1.27;;;13.80;80.10;;;;;;5076787;28;20197;-80